Time;durP1;ratioP1;P1;durP2;ratioP2;P2;SDS_P1;SDS_P2;PMS_P1;PMS_P2;Temp;Humidity;BMP_temperature;BMP_pressure;BME280_temperature;BME280_humidity;BME280_pressure;Samples;Min_cycle;Max_cycle;Signal;HPM_P1;HPM_P2
2023/09/01 00:00:02;;;;;;;0.70;0.70;;;;;;;21.16;48.50;100260.22;4566754;27;20047;-67
2023/09/01 00:02:16;;;;;;;0.80;0.80;;;;;;;21.05;48.50;100239.06;4564362;27;20119;-67
2023/09/01 00:04:37;;;;;;;0.90;0.90;;;;;;;21.04;48.08;100234.53;4568831;27;20039;-68
2023/09/01 00:06:48;;;;;;;0.80;0.80;;;;;;;21.16;47.99;100245.84;4570505;27;20949;-68
2023/09/01 00:08:58;;;;;;;1.27;1.00;;;;;;;21.15;48.10;100241.34;4568092;27;20033;-68
2023/09/01 00:11:10;;;;;;;0.90;0.90;;;;;;;21.06;48.42;100229.25;4567278;27;20102;-67
2023/09/01 00:13:21;;;;;;;1.00;0.90;;;;;;;21.10;48.28;100233.03;4568483;27;20543;-68
2023/09/01 00:15:31;;;;;;;1.20;0.93;;;;;;;21.15;48.33;100238.47;4568253;27;20047;-68
2023/09/01 00:17:42;;;;;;;1.10;1.00;;;;;;;21.16;48.54;100237.25;4550334;27;20040;-67
2023/09/01 00:19:52;;;;;;;1.13;1.02;;;;;;;21.15;48.34;100227.00;4569221;27;20044;-68
2023/09/01 00:22:03;;;;;;;0.95;0.90;;;;;;;21.15;47.99;100221.25;4568497;27;20032;-67
2023/09/01 00:24:13;;;;;;;1.13;0.98;;;;;;;21.14;48.27;100222.44;4552552;28;20576;-68
2023/09/01 00:26:24;;;;;;;1.25;0.85;;;;;;;21.14;48.39;100228.19;4568323;27;20037;-67
2023/09/01 00:28:35;;;;;;;1.55;0.90;;;;;;;21.10;48.42;100215.81;4552655;28;20116;-68
2023/09/01 00:30:57;;;;;;;1.27;1.10;;;;;;;21.14;48.41;100231.06;4568755;27;20032;-67
2023/09/01 00:33:08;;;;;;;1.48;1.00;;;;;;;21.14;48.29;100239.66;4550242;28;20040;-67
2023/09/01 00:35:19;;;;;;;1.13;0.80;;;;;;;21.15;48.56;100244.22;4560396;28;20078;-67
2023/09/01 00:37:29;;;;;;;1.15;1.05;;;;;;;21.14;48.12;100245.41;4554937;28;20041;-68
2023/09/01 00:39:40;;;;;;;1.10;0.93;;;;;;;21.11;48.42;100239.59;4567109;27;20037;-68
2023/09/01 00:41:50;;;;;;;1.17;1.00;;;;;;;21.15;48.16;100243.38;4568144;27;20493;-68
2023/09/01 00:44:01;;;;;;;1.05;0.95;;;;;;;21.09;48.05;100230.53;4568470;27;20486;-67
2023/09/01 00:46:12;;;;;;;1.23;1.05;;;;;;;21.14;48.01;100245.41;4567782;27;20047;-68
2023/09/01 00:48:22;;;;;;;1.40;0.90;;;;;;;21.11;48.39;100251.91;4568524;27;20040;-68
2023/09/01 00:50:35;;;;;;;1.38;1.00;;;;;;;21.14;47.96;100274.09;4549134;28;20024;-67
2023/09/01 00:52:46;;;;;;;1.00;0.90;;;;;;;21.14;47.95;100262.63;4567268;27;20032;-67
2023/09/01 00:54:56;;;;;;;1.55;1.00;;;;;;;21.13;47.91;100255.22;4549603;28;20490;-67
2023/09/01 00:57:06;;;;;;;1.50;1.00;;;;;;;21.11;47.71;100251.91;4567828;27;20056;-67
2023/09/01 00:59:17;;;;;;;1.27;0.98;;;;;;;21.10;47.86;100250.25;4551468;28;20068;-67
2023/09/01 01:01:28;;;;;;;0.90;0.90;;;;;;;21.12;47.28;100247.81;4560313;28;20486;-67
2023/09/01 01:03:40;;;;;;;1.20;0.90;;;;;;;21.11;47.62;100251.06;4552383;28;20037;-67
2023/09/01 01:06:29;;;;;;;1.10;0.82;;;;;;;21.13;47.17;100254.38;4567954;27;20877;-68
2023/09/01 01:09:08;;;;;;;1.00;0.90;;;;;;;21.12;47.72;100259.28;4466284;28;20035;-67
2023/09/01 01:11:35;;;;;;;0.80;0.80;;;;;;;21.12;47.96;100258.47;4549239;28;20811;-69
2023/09/01 01:13:52;;;;;;;0.80;0.80;;;;;;;21.09;47.70;100257.19;4549140;28;20083;-68
2023/09/01 01:16:03;;;;;;;0.98;0.88;;;;;;;21.10;47.13;100241.66;4567527;27;20147;-67
2023/09/01 01:18:18;;;;;;;0.95;0.77;;;;;;;21.08;46.92;100241.19;4552517;28;20106;-67
2023/09/01 01:20:31;;;;;;;0.82;0.80;;;;;;;21.11;47.02;100243.28;4568106;27;20648;-67
2023/09/01 01:22:48;;;;;;;0.88;0.70;;;;;;;21.10;46.56;100247.38;4559786;28;21179;-67
2023/09/01 01:24:58;;;;;;;0.80;0.80;;;;;;;21.11;46.84;100254.78;4567691;27;20140;-67
2023/09/01 01:27:08;;;;;;;0.88;0.80;;;;;;;20.98;46.65;100227.44;4557420;28;20106;-67
2023/09/01 01:29:19;;;;;;;0.70;0.70;;;;;;;21.10;46.46;100255.16;4548706;28;20089;-67
2023/09/01 01:31:29;;;;;;;1.00;0.90;;;;;;;21.08;46.63;100251.81;4552959;28;20029;-67
2023/09/01 01:34:06;;;;;;;0.90;0.90;;;;;;;21.11;46.74;100263.38;4567329;27;20036;-67
2023/09/01 01:36:30;;;;;;;1.08;0.85;;;;;;;21.05;46.46;100249.72;4565853;27;20088;-70
2023/09/01 01:38:42;;;;;;;1.50;1.00;;;;;;;21.08;46.92;100246.09;4567044;27;20074;-67
2023/09/01 01:41:03;;;;;;;1.00;0.88;;;;;;;21.09;47.01;100254.31;4566573;27;20761;-67
2023/09/01 01:43:17;;;;;;;1.65;1.00;;;;;;;21.10;46.60;100255.16;4567567;27;20556;-68
2023/09/01 01:45:29;;;;;;;0.85;0.80;;;;;;;21.09;47.30;100260.06;4547336;28;21380;-67
2023/09/01 01:47:40;;;;;;;1.33;0.80;;;;;;;21.08;47.16;100261.28;4552419;27;20048;-68
2023/09/01 01:49:50;;;;;;;0.98;0.80;;;;;;;21.08;46.83;100264.13;4567565;27;20484;-68
2023/09/01 01:52:01;;;;;;;0.82;0.77;;;;;;;21.06;46.83;100255.06;4567281;27;20036;-67
2023/09/01 01:54:12;;;;;;;1.10;0.80;;;;;;;21.08;46.67;100263.31;4548427;28;20088;-68
2023/09/01 01:56:22;;;;;;;0.70;0.70;;;;;;;21.06;47.27;100263.69;4567873;27;20447;-67
2023/09/01 01:58:33;;;;;;;1.00;0.80;;;;;;;21.07;46.65;100255.91;4550840;28;20492;-67
2023/09/01 02:00:43;;;;;;;1.25;0.80;;;;;;;21.05;46.25;100258.31;4548387;28;20344;-67
2023/09/01 02:02:54;;;;;;;1.20;0.90;;;;;;;21.08;46.27;100264.13;4566550;27;20028;-67
2023/09/01 02:05:06;;;;;;;1.40;1.00;;;;;;;21.05;46.27;100256.28;4568834;27;20032;-67
2023/09/01 02:07:17;;;;;;;1.20;0.90;;;;;;;21.04;46.61;100246.00;4547561;28;20147;-68
2023/09/01 02:09:29;;;;;;;1.25;0.82;;;;;;;20.99;46.35;100228.28;4566539;27;20036;-70
2023/09/01 02:11:39;;;;;;;0.65;0.65;;;;;;;21.06;46.56;100249.34;4568549;27;20029;-68
2023/09/01 02:13:50;;;;;;;1.10;1.00;;;;;;;21.03;46.40;100244.34;4562105;28;20031;-67
2023/09/01 02:16:00;;;;;;;1.15;0.93;;;;;;;21.05;46.69;100243.97;4571041;27;20029;-68
2023/09/01 02:18:10;;;;;;;1.17;0.90;;;;;;;21.05;46.14;100236.22;4553734;27;20501;-68
2023/09/01 02:20:21;;;;;;;0.90;0.90;;;;;;;21.04;46.72;100246.00;4556675;28;20064;-68
2023/09/01 02:22:31;;;;;;;1.00;0.90;;;;;;;21.01;46.38;100243.91;4570704;27;20035;-68
2023/09/01 02:24:42;;;;;;;1.02;0.90;;;;;;;20.92;46.39;100234.66;4570118;27;20385;-67
2023/09/01 02:26:52;;;;;;;1.05;0.98;;;;;;;20.93;46.61;100232.63;4556456;28;20040;-68
2023/09/01 02:29:05;;;;;;;1.10;1.00;;;;;;;21.04;46.80;100251.75;4570150;27;20161;-68
2023/09/01 02:31:16;;;;;;;1.05;0.88;;;;;;;21.04;46.94;100248.88;4568569;27;20028;-68
2023/09/01 02:33:26;;;;;;;0.75;0.70;;;;;;;21.03;46.81;100244.34;4570464;27;20857;-68
2023/09/01 02:35:44;;;;;;;0.88;0.80;;;;;;;21.05;46.62;100253.44;4569964;27;20028;-68
2023/09/01 02:37:55;;;;;;;1.00;0.90;;;;;;;21.04;46.14;100246.00;4572084;27;20047;-68
2023/09/01 02:40:11;;;;;;;0.90;0.90;;;;;;;21.02;46.43;100253.34;4554151;28;20048;-68
2023/09/01 02:42:22;;;;;;;;;;;;;;;21.05;46.60;100262.03;4554663;28;20040;-67
2023/09/01 02:44:32;;;;;;;0.82;0.80;;;;;;;21.00;46.41;100259.47;4569490;27;20968;-68
2023/09/01 02:46:42;;;;;;;0.80;0.80;;;;;;;21.01;46.21;100261.09;4559160;28;20036;-68
2023/09/01 02:48:53;;;;;;;1.00;0.90;;;;;;;21.02;46.40;100265.66;4553720;28;20033;-68
2023/09/01 02:51:06;;;;;;;0.65;0.65;;;;;;;20.97;46.06;100251.63;4554854;28;20061;-68
2023/09/01 02:53:16;;;;;;;2.35;0.90;;;;;;;21.02;46.03;100257.06;4570974;27;20037;-68
2023/09/01 02:55:27;;;;;;;0.70;0.70;;;;;;;21.02;46.38;100256.22;4541551;28;20529;-67
2023/09/01 02:57:38;;;;;;;1.15;0.90;;;;;;;21.01;45.79;100252.50;4560309;28;20032;-68
2023/09/01 02:59:50;;;;;;;1.10;0.88;;;;;;;21.00;46.25;100245.13;4569478;27;20067;-69
2023/09/01 03:02:01;;;;;;;1.17;0.90;;;;;;;21.01;46.01;100237.34;4561580;28;20067;-68
2023/09/01 03:04:11;;;;;;;1.00;0.90;;;;;;;21.01;46.08;100235.28;4566496;27;20070;-68
2023/09/01 03:06:21;;;;;;;1.00;0.90;;;;;;;21.00;46.34;100233.63;4570126;27;20029;-68
2023/09/01 03:08:32;;;;;;;0.90;0.90;;;;;;;21.02;46.13;100242.72;4553067;28;20591;-68
2023/09/01 03:10:42;;;;;;;0.73;0.73;;;;;;;21.00;45.84;100245.13;4568289;27;20036;-69
2023/09/01 03:12:53;;;;;;;0.85;0.82;;;;;;;21.00;45.86;100255.75;4553703;28;20397;-68
2023/09/01 03:15:05;;;;;;;1.77;0.90;;;;;;;20.99;45.77;100254.94;4556011;28;20400;-68
2023/09/01 03:17:16;;;;;;;0.80;0.80;;;;;;;21.01;45.55;100257.44;4550795;28;20089;-68
2023/09/01 03:19:27;;;;;;;0.88;0.70;;;;;;;21.01;46.08;100263.97;4555461;28;20589;-68
2023/09/01 03:21:37;;;;;;;0.80;0.80;;;;;;;20.99;46.21;100254.09;4553596;28;20037;-68
2023/09/01 03:23:48;;;;;;;0.85;0.80;;;;;;;20.88;45.69;100236.66;4569051;27;20040;-68
2023/09/01 03:25:58;;;;;;;0.80;0.80;;;;;;;20.99;45.78;100256.97;4555038;28;20489;-67
2023/09/01 03:28:09;;;;;;;0.80;0.80;;;;;;;20.98;45.50;100244.66;4554838;28;20029;-68
2023/09/01 03:30:20;;;;;;;1.17;0.73;;;;;;;20.99;45.50;100240.59;4553450;27;20045;-69
2023/09/01 03:32:31;;;;;;;0.95;0.65;;;;;;;20.96;45.76;100237.63;4558083;28;20039;-68
2023/09/01 03:34:42;;;;;;;0.80;0.80;;;;;;;20.98;45.75;100247.53;4570479;27;20032;-68
2023/09/01 03:36:53;;;;;;;1.10;0.90;;;;;;;20.99;45.93;100262.72;4567939;27;20042;-68
2023/09/01 03:39:07;;;;;;;1.08;0.80;;;;;;;21.00;45.94;100261.50;4559873;28;20168;-68
2023/09/01 03:41:18;;;;;;;0.98;0.90;;;;;;;20.90;45.50;100248.56;4555208;28;20017;-68
2023/09/01 03:43:28;;;;;;;0.80;0.80;;;;;;;20.96;45.16;100260.56;4555593;28;20037;-68
2023/09/01 03:45:42;;;;;;;0.82;0.80;;;;;;;20.98;45.52;100261.88;4555344;28;20076;-68
2023/09/01 03:47:53;;;;;;;0.82;0.73;;;;;;;20.97;45.25;100260.22;4569051;27;20086;-68
2023/09/01 03:50:04;;;;;;;1.00;0.82;;;;;;;20.94;45.17;100258.06;4537578;28;20072;-69
2023/09/01 03:52:14;;;;;;;0.80;0.80;;;;;;;20.98;45.52;100253.25;4560017;28;20155;-68
2023/09/01 03:54:25;;;;;;;1.00;0.90;;;;;;;20.93;44.98;100249.84;4556956;27;20459;-68
2023/09/01 03:56:35;;;;;;;1.10;0.80;;;;;;;20.97;45.51;100268.00;4569069;27;20032;-68
2023/09/01 03:58:46;;;;;;;0.82;0.80;;;;;;;20.91;45.24;100246.53;4561216;28;20033;-68
2023/09/01 04:00:56;;;;;;;0.88;0.80;;;;;;;20.91;45.57;100247.38;4553274;28;20044;-68
2023/09/01 04:03:07;;;;;;;0.88;0.80;;;;;;;20.95;45.17;100256.88;4553090;28;20041;-68
2023/09/01 04:05:17;;;;;;;0.88;0.80;;;;;;;20.92;44.98;100251.88;4543360;28;20390;-68
2023/09/01 04:07:27;;;;;;;0.80;0.80;;;;;;;20.91;44.37;100258.84;4569436;27;20064;-68
2023/09/01 04:09:38;;;;;;;1.25;1.00;;;;;;;20.94;44.97;100257.25;4569588;27;20044;-67
2023/09/01 04:11:48;;;;;;;1.05;0.95;;;;;;;20.93;44.88;100256.41;4569521;27;20040;-68
2023/09/01 04:13:59;;;;;;;1.40;0.85;;;;;;;20.93;44.50;100265.00;4567933;27;20028;-67
2023/09/01 04:16:09;;;;;;;1.00;0.90;;;;;;;20.93;44.20;100265.00;4569824;27;20028;-67
2023/09/01 04:18:20;;;;;;;1.05;0.90;;;;;;;20.88;44.41;100258.75;4559380;28;20116;-68
2023/09/01 04:20:30;;;;;;;0.88;0.80;;;;;;;20.92;44.56;100266.22;4570003;27;20036;-68
2023/09/01 04:22:40;;;;;;;0.80;0.80;;;;;;;20.93;43.99;100270.75;4560032;28;20539;-68
2023/09/01 04:24:51;;;;;;;0.75;0.75;;;;;;;20.87;44.34;100257.91;4552755;28;20045;-68
2023/09/01 04:27:02;;;;;;;0.85;0.73;;;;;;;20.91;44.26;100267.44;4552472;28;20067;-68
2023/09/01 04:29:14;;;;;;;0.80;0.80;;;;;;;20.94;44.07;100265.84;4560405;28;20033;-68
2023/09/01 04:31:29;;;;;;;1.08;0.98;;;;;;;20.93;44.22;100267.88;4559398;28;20037;-68
2023/09/01 04:33:41;;;;;;;1.55;0.80;;;;;;;20.93;43.81;100249.84;4549673;28;20028;-68
2023/09/01 04:36:05;;;;;;;1.88;0.90;;;;;;;20.85;43.86;100242.31;4552468;28;20070;-68
2023/09/01 04:38:16;;;;;;;0.90;0.80;;;;;;;20.90;43.95;100262.91;4551689;27;20039;-68
2023/09/01 04:40:26;;;;;;;1.70;1.00;;;;;;;20.91;44.51;100258.84;4569536;27;20052;-68
2023/09/01 04:42:37;;;;;;;1.20;1.00;;;;;;;20.93;44.48;100261.31;4535987;27;20043;-68
2023/09/01 04:44:47;;;;;;;0.70;0.70;;;;;;;20.90;44.07;100259.22;4567561;27;20572;-68
2023/09/01 04:46:57;;;;;;;0.80;0.80;;;;;;;20.82;43.95;100249.59;4560462;28;20024;-68
2023/09/01 04:49:08;;;;;;;0.77;0.77;;;;;;;20.90;44.10;100254.28;4559890;28;20064;-67
2023/09/01 04:51:19;;;;;;;0.90;0.77;;;;;;;20.90;43.85;100257.16;4553173;28;20035;-67
2023/09/01 04:53:30;;;;;;;0.80;0.80;;;;;;;20.92;43.41;100266.22;4540028;28;20119;-68
2023/09/01 04:55:40;;;;;;;1.50;0.85;;;;;;;20.91;43.78;100264.56;4552717;28;20082;-68
2023/09/01 04:57:50;;;;;;;1.10;1.00;;;;;;;20.91;43.81;100267.44;4552739;28;20024;-68
2023/09/01 05:00:02;;;;;;;0.77;0.77;;;;;;;20.90;43.76;100267.81;4551551;28;20370;-68
2023/09/01 05:02:13;;;;;;;1.00;0.80;;;;;;;20.88;43.95;100258.75;4552623;28;20044;-68
2023/09/01 05:04:23;;;;;;;0.98;0.88;;;;;;;20.90;44.00;100259.22;4557074;28;20079;-68
2023/09/01 05:06:34;;;;;;;1.42;0.80;;;;;;;20.86;44.28;100250.53;4568164;27;20036;-68
2023/09/01 05:08:44;;;;;;;1.10;0.73;;;;;;;20.91;44.17;100264.56;4566747;27;21111;-68
2023/09/01 05:10:55;;;;;;;0.98;0.80;;;;;;;20.87;43.87;100255.03;4553164;28;20044;-68
2023/09/01 05:13:05;;;;;;;1.00;0.80;;;;;;;20.88;44.29;100253.84;4550235;28;20029;-68
2023/09/01 05:15:15;;;;;;;0.85;0.80;;;;;;;20.89;44.23;100261.25;4556733;28;20028;-68
2023/09/01 05:17:26;;;;;;;1.70;1.00;;;;;;;20.88;44.71;100256.72;4566929;27;20036;-70
2023/09/01 05:19:36;;;;;;;1.23;0.88;;;;;;;20.85;44.85;100253.78;4552308;27;20106;-68
2023/09/01 05:21:48;;;;;;;1.10;1.00;;;;;;;20.88;45.06;100258.75;4554685;28;20029;-68
2023/09/01 05:23:58;;;;;;;1.00;0.90;;;;;;;20.89;45.75;100261.25;4551513;27;20037;-68
2023/09/01 05:26:08;;;;;;;1.80;0.95;;;;;;;20.87;45.76;100260.78;4555370;28;20025;-68
2023/09/01 05:28:19;;;;;;;1.20;1.00;;;;;;;20.82;45.93;100246.75;4567626;27;20036;-68
2023/09/01 05:30:29;;;;;;;1.20;1.05;;;;;;;20.85;46.70;100260.34;4551774;28;20036;-69
2023/09/01 05:32:40;;;;;;;0.82;0.82;;;;;;;20.88;46.60;100259.59;4552241;28;20116;-68
2023/09/01 05:34:50;;;;;;;1.17;0.80;;;;;;;20.83;46.21;100263.56;4550732;28;20072;-68
2023/09/01 05:37:02;;;;;;;0.85;0.70;;;;;;;20.86;46.47;100264.88;4559064;28;20112;-68
2023/09/01 05:39:12;;;;;;;2.10;0.80;;;;;;;20.87;46.44;100266.53;4566455;27;20020;-68
2023/09/01 05:41:22;;;;;;;0.95;0.80;;;;;;;20.86;46.51;100270.59;4556991;28;20115;-68
2023/09/01 05:43:33;;;;;;;0.90;0.85;;;;;;;20.86;47.10;100273.47;4559431;28;20385;-68
2023/09/01 05:45:44;;;;;;;0.88;0.80;;;;;;;20.85;47.09;100271.84;4551724;27;20814;-68
2023/09/01 05:47:56;;;;;;;0.98;0.70;;;;;;;20.87;47.39;100274.31;4551147;28;20052;-67
2023/09/01 05:50:07;;;;;;;0.80;0.80;;;;;;;20.83;47.29;100268.50;4554645;28;20112;-67
2023/09/01 05:52:17;;;;;;;1.17;0.90;;;;;;;20.83;47.78;100263.56;4552945;28;20112;-67
2023/09/01 05:54:28;;;;;;;1.15;0.80;;;;;;;20.87;48.26;100280.06;4554956;28;20827;-68
2023/09/01 05:56:38;;;;;;;1.33;0.90;;;;;;;20.86;48.45;100267.75;4570066;27;20040;-68
2023/09/01 05:58:49;;;;;;;1.58;0.80;;;;;;;20.87;48.95;100274.31;4569578;27;20028;-68
2023/09/01 06:00:59;;;;;;;0.90;0.80;;;;;;;20.85;48.66;100259.50;4568828;27;20098;-68
2023/09/01 06:03:10;;;;;;;1.33;1.00;;;;;;;20.87;49.29;100262.84;4569563;27;20052;-68
2023/09/01 06:05:20;;;;;;;1.10;1.00;;;;;;;20.79;49.35;100244.63;4570067;27;20029;-68
2023/09/01 06:07:30;;;;;;;1.45;1.02;;;;;;;20.86;49.47;100261.16;4569514;27;20544;-67
2023/09/01 06:09:41;;;;;;;1.38;1.00;;;;;;;20.87;49.69;100265.72;4569112;27;20415;-67
2023/09/01 06:11:52;;;;;;;0.90;0.90;;;;;;;20.83;49.49;100259.91;4544269;28;20033;-68
2023/09/01 06:14:03;;;;;;;1.45;0.98;;;;;;;20.78;49.61;100254.44;4570769;27;20033;-67
2023/09/01 06:16:14;;;;;;;1.30;1.00;;;;;;;20.84;49.78;100273.00;4568937;27;20033;-68
2023/09/01 06:18:24;;;;;;;1.35;1.10;;;;;;;20.78;50.01;100260.19;4569589;27;20078;-67
2023/09/01 06:20:35;;;;;;;1.27;1.13;;;;;;;20.83;50.28;100275.03;4568576;27;20185;-68
2023/09/01 06:22:45;;;;;;;1.65;1.02;;;;;;;20.83;50.28;100279.97;4570282;27;20550;-70
2023/09/01 06:24:56;;;;;;;1.23;1.10;;;;;;;20.82;50.35;100278.28;4568653;27;20036;-68
2023/09/01 06:27:06;;;;;;;1.23;1.10;;;;;;;20.83;50.58;100285.72;4562510;28;20412;-67
2023/09/01 06:29:16;;;;;;;1.40;1.17;;;;;;;20.84;50.91;100290.22;4568382;27;20120;-69
2023/09/01 06:31:27;;;;;;;1.10;1.00;;;;;;;20.81;50.68;100285.25;4555664;28;20040;-68
2023/09/01 06:33:42;;;;;;;2.72;1.10;;;;;;;20.84;51.32;100281.63;4553345;27;20054;-67
2023/09/01 06:35:52;;;;;;;1.67;1.17;;;;;;;20.76;51.17;100274.06;4551185;28;20052;-67
2023/09/01 06:38:05;;;;;;;1.83;1.20;;;;;;;20.80;51.58;100275.00;4568488;27;20060;-67
2023/09/01 06:40:16;;;;;;;0.95;0.93;;;;;;;20.83;51.77;100279.13;4569628;27;20036;-68
2023/09/01 06:42:26;;;;;;;1.52;1.10;;;;;;;20.84;51.53;100287.34;4569620;27;20024;-68
2023/09/01 06:44:37;;;;;;;1.65;1.10;;;;;;;20.78;52.26;100274.53;4550818;28;20095;-67
2023/09/01 06:46:49;;;;;;;1.63;1.20;;;;;;;20.81;52.28;100276.63;4553824;28;21519;-67
2023/09/01 06:49:00;;;;;;;1.13;1.00;;;;;;;20.81;51.63;100276.63;4569631;27;20116;-68
2023/09/01 06:51:10;;;;;;;1.42;1.33;;;;;;;20.83;51.46;100273.41;4570074;27;20040;-68
2023/09/01 06:53:20;;;;;;;1.48;1.30;;;;;;;20.81;51.69;100282.38;4569684;27;20481;-67
2023/09/01 06:55:31;;;;;;;1.40;1.30;;;;;;;20.82;52.02;100272.56;4569360;27;20115;-68
2023/09/01 06:57:42;;;;;;;1.50;1.30;;;;;;;20.81;52.04;100270.91;4569611;27;20036;-67
2023/09/01 06:59:52;;;;;;;1.63;1.15;;;;;;;20.80;51.86;100272.13;4568084;27;20037;-68
2023/09/01 07:02:03;;;;;;;1.65;1.20;;;;;;;20.72;52.18;100264.56;4557354;28;20060;-67
2023/09/01 07:04:13;;;;;;;2.63;1.40;;;;;;;20.80;52.67;100284.41;4569045;27;20032;-67
2023/09/01 07:06:24;;;;;;;1.33;1.15;;;;;;;20.82;52.50;100292.63;4570685;27;20476;-68
2023/09/01 07:08:34;;;;;;;1.83;1.17;;;;;;;20.80;52.75;100293.00;4569212;27;20071;-67
2023/09/01 07:10:45;;;;;;;1.30;1.20;;;;;;;20.81;52.59;100293.84;4570807;27;20122;-68
2023/09/01 07:12:55;;;;;;;1.75;1.15;;;;;;;20.78;52.97;100283.13;4568415;27;20075;-67
2023/09/01 07:15:06;;;;;;;1.52;1.10;;;;;;;20.79;53.50;100284.78;4570537;27;20625;-68
2023/09/01 07:17:24;;;;;;;1.65;1.20;;;;;;;20.80;53.43;100289.34;4568901;27;20044;-67
2023/09/01 07:19:34;;;;;;;1.75;1.20;;;;;;;20.77;53.16;100279.44;4567023;27;20599;-67
2023/09/01 07:21:45;;;;;;;1.30;1.20;;;;;;;20.75;53.48;100278.16;4569111;27;20059;-68
2023/09/01 07:23:55;;;;;;;1.10;1.00;;;;;;;20.80;53.28;100289.34;4570228;27;20179;-67
2023/09/01 07:26:06;;;;;;;1.88;1.27;;;;;;;20.79;53.84;100284.78;4568110;27;20035;-67
2023/09/01 07:28:17;;;;;;;2.25;1.30;;;;;;;20.80;53.65;100277.88;4567961;27;20040;-67
2023/09/01 07:30:31;;;;;;;2.08;1.20;;;;;;;20.78;53.68;100274.53;4566487;27;20032;-67
2023/09/01 07:32:41;;;;;;;1.42;1.17;;;;;;;20.81;54.17;100276.63;4567895;27;20953;-67
2023/09/01 07:34:52;;;;;;;1.50;1.30;;;;;;;20.79;54.48;100262.69;4570657;27;20025;-67
2023/09/01 07:37:03;;;;;;;1.15;1.05;;;;;;;20.79;54.31;100251.22;4569100;27;20086;-67
2023/09/01 07:39:13;;;;;;;1.23;1.10;;;;;;;20.76;55.10;100248.25;4568602;27;20029;-67
2023/09/01 07:41:24;;;;;;;2.22;1.10;;;;;;;20.76;55.49;100246.22;4568727;27;20044;-67
2023/09/01 07:43:35;;;;;;;1.85;1.20;;;;;;;20.82;55.39;100260.28;4555007;28;20047;-68
2023/09/01 07:45:45;;;;;;;1.00;0.93;;;;;;;20.76;55.43;100251.13;4561364;28;20037;-67
2023/09/01 07:47:56;;;;;;;0.90;0.90;;;;;;;20.76;56.24;100260.56;4568385;27;20024;-68
2023/09/01 07:50:08;;;;;;;1.25;1.10;;;;;;;20.81;55.60;100270.91;4568757;27;20386;-67
2023/09/01 07:52:19;;;;;;;1.42;1.00;;;;;;;20.77;55.31;100267.13;4569473;27;20046;-67
2023/09/01 07:54:29;;;;;;;1.38;0.90;;;;;;;20.77;55.70;100270.00;4567960;27;20047;-68
2023/09/01 07:56:40;;;;;;;1.63;0.90;;;;;;;20.79;55.97;100279.03;4568211;27;20046;-67
2023/09/01 07:58:50;;;;;;;1.73;1.20;;;;;;;20.78;56.25;100271.66;4567395;27;20040;-68
2023/09/01 08:01:00;;;;;;;1.30;0.90;;;;;;;20.76;56.09;100268.34;4568370;27;20079;-67
2023/09/01 08:03:11;;;;;;;1.10;1.00;;;;;;;20.74;56.46;100259.25;4568662;27;20021;-68
2023/09/01 08:05:23;;;;;;;1.10;1.00;;;;;;;20.80;55.92;100275.00;4568517;27;20047;-67
2023/09/01 08:07:33;;;;;;;1.38;1.20;;;;;;;20.77;56.18;100258.53;4567470;27;20092;-68
2023/09/01 08:09:43;;;;;;;1.08;0.90;;;;;;;20.72;56.29;100250.22;4568796;27;20123;-67
2023/09/01 08:11:54;;;;;;;1.20;1.10;;;;;;;20.76;56.25;100251.97;4568676;27;20461;-67
2023/09/01 08:14:04;;;;;;;1.65;1.20;;;;;;;20.79;56.22;100262.69;4567842;27;20036;-67
2023/09/01 08:16:18;;;;;;;1.45;0.90;;;;;;;20.77;56.97;100261.41;4568913;27;20024;-67
2023/09/01 08:18:28;;;;;;;1.80;0.82;;;;;;;20.79;56.86;100267.56;4567771;27;20032;-67
2023/09/01 08:20:40;;;;;;;1.42;0.90;;;;;;;20.72;57.05;100262.50;4568966;27;20048;-67
2023/09/01 08:22:50;;;;;;;1.60;1.00;;;;;;;20.77;56.44;100275.75;4567541;27;20634;-67
2023/09/01 08:25:01;;;;;;;1.20;0.90;;;;;;;20.78;56.49;100271.66;4568123;27;20106;-67
2023/09/01 08:27:12;;;;;;;1.35;0.90;;;;;;;20.78;56.01;100268.78;4570271;27;20040;-67
2023/09/01 08:29:22;;;;;;;1.27;0.88;;;;;;;20.68;56.43;100255.88;4567132;27;20036;-68
2023/09/01 08:31:32;;;;;;;0.95;0.70;;;;;;;20.76;55.88;100268.34;4568567;27;20024;-68
2023/09/01 08:33:44;;;;;;;1.02;0.88;;;;;;;20.79;56.38;100273.31;4567879;27;20481;-67
2023/09/01 08:35:54;;;;;;;0.70;0.70;;;;;;;20.76;56.51;100274.06;4568874;27;20039;-67
2023/09/01 08:38:05;;;;;;;0.80;0.80;;;;;;;20.77;56.92;100270.00;4566886;27;20035;-68
2023/09/01 08:40:15;;;;;;;1.05;0.70;;;;;;;20.80;56.57;100280.72;4548856;27;20516;-67
2023/09/01 08:42:27;;;;;;;1.50;0.93;;;;;;;20.79;56.74;100279.88;4568902;27;20544;-68
2023/09/01 08:44:39;;;;;;;1.20;0.80;;;;;;;20.78;56.78;100275.38;4567391;27;20043;-67
2023/09/01 08:46:53;;;;;;;1.17;0.95;;;;;;;20.80;56.81;100275.81;4569211;27;20052;-67
2023/09/01 08:49:04;;;;;;;1.05;0.80;;;;;;;20.78;56.84;100265.94;4567670;27;21432;-67
2023/09/01 08:51:14;;;;;;;1.13;0.85;;;;;;;20.80;57.73;100275.00;4549051;28;20033;-67
2023/09/01 08:53:25;;;;;;;0.50;0.50;;;;;;;20.78;57.75;100269.63;4567455;27;20040;-68
2023/09/01 08:55:37;;;;;;;0.45;0.45;;;;;;;20.75;57.04;100260.94;4566287;27;20036;-67
2023/09/01 08:57:49;;;;;;;0.50;0.50;;;;;;;20.75;57.65;100260.94;4569154;27;20024;-67
2023/09/01 08:59:59;;;;;;;1.00;0.55;;;;;;;20.78;57.38;100251.59;4567142;27;20039;-67
2023/09/01 09:02:10;;;;;;;0.68;0.50;;;;;;;20.71;56.72;100248.53;4567616;27;20544;-67
2023/09/01 09:04:20;;;;;;;0.68;0.50;;;;;;;20.78;56.76;100266.75;4568315;27;20035;-68
2023/09/01 09:06:35;;;;;;;0.50;0.50;;;;;;;20.80;56.86;100266.38;4566745;27;20047;-68
2023/09/01 09:09:03;;;;;;;1.15;0.50;;;;;;;20.78;56.66;100265.94;4567150;27;20036;-67
2023/09/01 09:11:14;;;;;;;0.40;0.40;;;;;;;20.77;56.75;100265.09;4561163;28;20658;-67
2023/09/01 09:13:29;;;;;;;0.50;0.50;;;;;;;20.74;56.70;100259.25;4568961;27;20036;-67
2023/09/01 09:15:39;;;;;;;0.90;0.50;;;;;;;20.77;56.80;100264.28;4568323;27;21158;-68
2023/09/01 09:17:49;;;;;;;0.60;0.60;;;;;;;20.79;57.46;100261.84;4566329;27;20025;-67
2023/09/01 09:20:00;;;;;;;0.80;0.60;;;;;;;20.80;57.43;100272.13;4567182;27;20055;-67
2023/09/01 09:22:11;;;;;;;0.68;0.40;;;;;;;20.78;57.48;100274.53;4567431;27;20066;-68
2023/09/01 09:24:36;;;;;;;0.52;0.50;;;;;;;20.81;56.63;100270.91;4565879;27;20040;-67
2023/09/01 09:26:55;;;;;;;0.82;0.50;;;;;;;20.77;57.25;100276.56;4567455;27;20020;-67
2023/09/01 09:29:08;;;;;;;0.68;0.50;;;;;;;20.81;56.88;100268.03;4566605;27;20872;-67
2023/09/01 09:31:35;;;;;;;0.80;0.50;;;;;;;20.72;57.01;100253.09;4569562;27;20039;-68
2023/09/01 09:33:45;;;;;;;1.02;0.55;;;;;;;20.81;57.58;100273.78;4559997;28;20029;-67
2023/09/01 09:35:56;;;;;;;0.40;0.40;;;;;;;20.78;56.81;100271.66;4558330;28;20040;-69
2023/09/01 09:38:07;;;;;;;0.82;0.60;;;;;;;20.74;57.32;100271.56;4567639;27;20068;-67
2023/09/01 09:40:17;;;;;;;0.50;0.45;;;;;;;20.79;57.33;100279.88;4567903;27;20139;-67
2023/09/01 09:42:41;;;;;;;0.57;0.57;;;;;;;20.78;58.08;100280.25;4553483;27;20037;-68
2023/09/01 09:44:55;;;;;;;0.57;0.40;;;;;;;20.77;58.53;100279.44;4567762;27;20678;-67
2023/09/01 09:47:10;;;;;;;0.70;0.50;;;;;;;20.79;59.05;100287.66;4567350;27;20029;-68
2023/09/01 09:49:22;;;;;;;0.50;0.50;;;;;;;20.78;59.14;100281.09;4567761;27;20032;-67
2023/09/01 09:51:33;;;;;;;1.15;0.68;;;;;;;20.75;59.08;100278.16;4566882;27;20017;-67
2023/09/01 09:53:47;;;;;;;0.88;0.63;;;;;;;20.81;58.11;100288.13;4567443;27;20040;-67
2023/09/01 09:55:58;;;;;;;0.85;0.60;;;;;;;20.74;57.82;100276.47;4566720;27;20036;-67
2023/09/01 09:58:11;;;;;;;0.95;0.50;;;;;;;20.82;58.80;100295.50;4566109;27;20029;-67
2023/09/01 10:00:22;;;;;;;0.63;0.60;;;;;;;20.74;58.28;100285.06;4567306;27;20090;-68
2023/09/01 10:03:08;;;;;;;0.50;0.50;;;;;;;20.82;57.60;100289.75;4568121;27;20036;-67
2023/09/01 10:05:21;;;;;;;0.50;0.50;;;;;;;20.75;58.39;100283.88;4485149;28;20117;-68
2023/09/01 10:07:33;;;;;;;1.00;0.50;;;;;;;20.80;58.31;100295.06;4539940;27;20032;-67
2023/09/01 10:09:44;;;;;;;0.70;0.52;;;;;;;20.80;58.22;100283.59;4566452;27;20040;-68
2023/09/01 10:11:55;;;;;;;0.30;0.30;;;;;;;20.82;58.04;100289.75;4567608;27;20610;-67